Time;durP1;ratioP1;P1;durP2;ratioP2;P2;SDS_P1;SDS_P2;PMS_P1;PMS_P2;Temp;Humidity;BMP_temperature;BMP_pressure;BME280_temperature;BME280_humidity;BME280_pressure;Samples;Min_cycle;Max_cycle;Signal;HPM_P1;HPM_P2
2023/09/21 00:01:06;;;;;;;2.35;1.67;;;;;;;16.65;100.00;100641.88;5065245;28;20067;-79
2023/09/21 00:03:35;;;;;;;4.40;2.53;;;;;;;16.96;100.00;100741.09;5062369;28;20055;-78
2023/09/21 00:06:01;;;;;;;1.70;1.58;;;;;;;16.83;100.00;100769.63;5061213;28;20123;-78
2023/09/21 00:08:27;;;;;;;4.05;2.10;;;;;;;17.02;100.00;100760.41;5048508;28;20032;-79
2023/09/21 00:10:54;;;;;;;2.78;2.58;;;;;;;16.80;100.00;100711.38;5065426;28;20046;-78
2023/09/21 00:13:26;;;;;;;2.33;1.75;;;;;;;16.90;100.00;100746.53;5057751;28;20051;-78
2023/09/21 00:15:53;;;;;;;2.08;1.88;;;;;;;17.00;100.00;100748.97;5057126;28;20044;-79
2023/09/21 00:18:24;;;;;;;1.02;0.98;;;;;;;16.57;100.00;100638.50;5058861;28;20052;-78
2023/09/21 00:20:53;;;;;;;7.63;2.83;;;;;;;16.61;100.00;100655.22;5064886;28;20075;-79
2023/09/21 00:23:25;;;;;;;2.83;1.75;;;;;;;16.45;100.00;100655.53;5065657;28;20029;-78
2023/09/21 00:25:58;;;;;;;1.40;1.30;;;;;;;16.77;100.00;100746.75;5065767;28;20522;-79
2023/09/21 00:28:28;;;;;;;1.92;1.80;;;;;;;16.68;100.00;100734.53;5064733;28;20445;-79
2023/09/21 00:30:57;;;;;;;13.30;2.85;;;;;;;16.51;100.00;100712.81;5066275;28;20056;-79
2023/09/21 00:33:27;;;;;;;2.10;1.75;;;;;;;16.58;100.00;100726.81;5059777;28;20048;-78
2023/09/21 00:35:53;;;;;;;2.30;1.88;;;;;;;16.15;100.00;100651.69;5058233;28;20041;-79
2023/09/21 00:38:19;;;;;;;2.22;2.00;;;;;;;15.70;100.00;100590.78;5061601;28;20066;-79
2023/09/21 00:40:45;;;;;;;3.50;3.20;;;;;;;16.56;100.00;100736.56;5057927;28;20114;-79
2023/09/21 00:43:20;;;;;;;2.05;1.60;;;;;;;16.08;100.00;100649.22;5067207;28;20056;-79
2023/09/21 00:45:54;;;;;;;3.97;3.65;;;;;;;16.10;100.00;100660.66;5054098;28;20044;-79
2023/09/21 00:48:25;;;;;;;2.95;2.10;;;;;;;16.31;100.00;100704.38;5061947;28;20072;-79
2023/09/21 00:50:54;;;;;;;1.33;1.23;;;;;;;15.99;100.00;100650.25;5071268;28;20056;-79
2023/09/21 00:53:21;;;;;;;4.82;4.30;;;;;;;16.13;100.00;100676.47;5065786;28;20054;-79
2023/09/21 00:55:53;;;;;;;2.30;2.10;;;;;;;15.90;100.00;100639.84;5064097;28;20052;-79
2023/09/21 00:58:23;;;;;;;4.65;3.92;;;;;;;16.48;100.00;100731.41;5050636;28;20117;-77
2023/09/21 01:00:50;;;;;;;2.20;1.75;;;;;;;16.67;100.00;100747.84;5065057;28;20456;-78
2023/09/21 01:03:17;;;;;;;6.22;2.45;;;;;;;16.15;100.00;100672.00;5068624;28;20212;-79
2023/09/21 01:05:45;;;;;;;1.65;1.55;;;;;;;16.46;100.00;100720.84;5068800;28;20110;-79
2023/09/21 01:08:18;;;;;;;2.75;2.47;;;;;;;16.38;100.00;100708.66;5066204;28;20177;-79
2023/09/21 01:10:49;;;;;;;1.43;1.30;;;;;;;16.43;100.00;100726.19;5064465;28;20164;-79
2023/09/21 01:13:18;;;;;;;3.38;2.05;;;;;;;16.13;100.00;100650.88;5068272;28;20537;-79
2023/09/21 01:16:04;;;;;;;2.97;2.53;;;;;;;16.23;100.00;100668.31;5066621;28;20128;-79
2023/09/21 01:18:31;;;;;;;3.25;2.95;;;;;;;16.81;100.00;100750.22;5062879;28;20045;-78
2023/09/21 01:21:04;;;;;;;1.70;1.60;;;;;;;16.62;100.00;100752.34;5064497;28;20056;-78
2023/09/21 01:23:35;;;;;;;3.55;3.25;;;;;;;16.54;100.00;100754.28;5061259;28;20291;-78
2023/09/21 01:26:01;;;;;;;2.67;2.47;;;;;;;16.07;100.00;100666.88;5068463;28;20028;-79
2023/09/21 01:28:29;;;;;;;2.35;2.00;;;;;;;15.74;100.00;100616.31;5060387;28;20408;-78
2023/09/21 01:30:58;;;;;;;3.58;3.08;;;;;;;15.85;100.00;100655.81;5067751;28;20131;-80
2023/09/21 01:33:24;;;;;;;2.53;2.33;;;;;;;16.28;100.00;100744.16;5067821;28;20044;-80
2023/09/21 01:35:50;;;;;;;3.03;2.75;;;;;;;15.78;100.00;100662.09;5060012;28;20048;-80
2023/09/21 01:38:19;;;;;;;3.35;3.08;;;;;;;15.55;100.00;100620.16;5056958;28;20036;-78
2023/09/21 01:40:46;;;;;;;2.20;2.00;;;;;;;15.63;100.00;100623.53;5062210;28;20416;-79
2023/09/21 01:43:14;;;;;;;3.28;2.97;;;;;;;15.77;100.00;100663.00;5058582;28;20135;-79
2023/09/21 01:45:42;;;;;;;3.95;2.63;;;;;;;16.28;100.00;100758.28;5057594;28;20502;-80
2023/09/21 01:48:09;;;;;;;3.80;2.83;;;;;;;15.77;100.00;100648.00;5060448;28;20416;-80
2023/09/21 01:50:43;;;;;;;1.08;0.93;;;;;;;16.14;100.00;100729.41;5067900;28;20063;-81
2023/09/21 01:53:20;;;;;;;3.38;3.05;;;;;;;16.48;100.00;100755.25;5067108;28;20036;-81
2023/09/21 01:55:47;;;;;;;1.73;1.63;;;;;;;15.95;100.00;100649.44;5066115;28;20037;-80
2023/09/21 01:58:14;;;;;;;5.05;2.83;;;;;;;15.73;100.00;100629.56;5065595;28;20048;-79
2023/09/21 02:00:46;;;;;;;1.98;1.08;;;;;;;16.30;100.00;100739.72;5066618;28;20044;-79
2023/09/21 02:03:13;;;;;;;3.60;2.50;;;;;;;15.69;100.00;100667.53;5067913;28;20061;-79
2023/09/21 02:05:42;;;;;;;5.15;2.70;;;;;;;15.55;100.00;100649.25;5059225;28;20821;-78
2023/09/21 02:08:09;;;;;;;3.90;2.25;;;;;;;15.47;100.00;100646.69;5046823;28;20036;-77
2023/09/21 02:10:37;;;;;;;1.42;1.33;;;;;;;15.95;100.00;100738.56;5064162;28;20053;-78
2023/09/21 02:13:06;;;;;;;2.47;2.22;;;;;;;15.43;100.00;100647.69;5066579;28;20028;-78
2023/09/21 02:15:37;;;;;;;5.03;3.80;;;;;;;15.28;100.00;100640.84;5066260;28;20136;-78
2023/09/21 02:18:04;;;;;;;2.53;2.33;;;;;;;15.57;100.00;100660.69;5047346;28;20713;-80
2023/09/21 02:20:31;;;;;;;4.10;3.75;;;;;;;16.04;100.00;100759.59;5057570;28;20120;-78
2023/09/21 02:22:58;;;;;;;3.70;2.47;;;;;;;15.30;100.00;100643.47;5066039;28;20024;-79
2023/09/21 02:25:25;;;;;;;4.72;2.30;;;;;;;15.82;100.00;100744.03;5060780;28;20163;-80
2023/09/21 02:27:51;;;;;;;6.10;3.08;;;;;;;15.29;100.00;100649.63;5061358;28;20044;-80
2023/09/21 02:30:20;;;;;;;15.77;3.58;;;;;;;14.84;100.00;100578.09;5066477;28;20052;-81
2023/09/21 02:32:51;;;;;;;4.22;3.83;;;;;;;15.70;100.00;100716.88;5063607;28;20020;-79
2023/09/21 02:35:27;;;;;;;1.40;1.30;;;;;;;15.88;100.00;100752.81;5058460;28;20032;-79
2023/09/21 02:37:55;;;;;;;3.35;3.08;;;;;;;15.35;100.00;100644.25;5052609;28;20420;-79
2023/09/21 02:40:23;;;;;;;3.28;2.47;;;;;;;15.80;100.00;100724.69;5058393;28;20575;-79
2023/09/21 02:42:53;;;;;;;4.63;2.92;;;;;;;15.90;100.00;100749.22;5054681;28;20094;-79
2023/09/21 02:45:24;;;;;;;3.35;2.35;;;;;;;15.73;100.00;100733.63;5048197;28;20412;-80
2023/09/21 02:47:54;;;;;;;10.15;3.95;;;;;;;15.17;100.00;100654.25;5039790;28;20044;-79
2023/09/21 02:50:25;;;;;;;5.63;5.13;;;;;;;15.85;100.00;100766.97;5064671;28;20656;-80
2023/09/21 02:53:04;;;;;;;1.85;1.75;;;;;;;15.83;100.00;100752.88;5063142;28;20472;-78
2023/09/21 02:55:30;;;;;;;2.25;2.03;;;;;;;14.76;100.00;100587.00;5051229;28;20048;-79
2023/09/21 02:58:13;;;;;;;3.38;3.10;;;;;;;15.81;100.00;100767.91;5065871;28;20503;-79
2023/09/21 03:00:43;;;;;;;10.38;4.15;;;;;;;15.79;100.00;100772.34;5066120;28;20131;-77
2023/09/21 03:03:16;;;;;;;8.73;2.25;;;;;;;15.76;100.00;100775.03;5065001;28;20036;-77
2023/09/21 03:05:46;;;;;;;4.32;3.92;;;;;;;15.51;100.00;100748.91;5065791;28;20478;-78
2023/09/21 03:08:14;;;;;;;10.65;6.53;;;;;;;15.52;100.00;100752.41;5061835;28;20036;-78
2023/09/21 03:10:53;;;;;;;3.58;2.80;;;;;;;15.65;100.00;100769.88;5047003;28;20044;-78
2023/09/21 03:13:20;;;;;;;5.25;2.85;;;;;;;15.58;100.00;100745.28;5064810;28;20527;-77
2023/09/21 03:15:53;;;;;;;4.22;2.90;;;;;;;15.19;100.00;100686.81;5061152;28;20048;-78
2023/09/21 03:18:20;;;;;;;3.10;2.75;;;;;;;15.10;100.00;100678.13;5061751;28;20044;-78
2023/09/21 03:20:46;;;;;;;3.50;2.85;;;;;;;15.06;100.00;100682.59;5052461;28;20029;-78
2023/09/21 03:23:14;;;;;;;2.40;2.20;;;;;;;15.01;100.00;100662.41;5062512;28;20082;-78
2023/09/21 03:25:43;;;;;;;4.75;3.92;;;;;;;15.69;100.00;100778.66;5064417;28;20116;-77
2023/09/21 03:28:12;;;;;;;2.17;1.35;;;;;;;15.60;100.00;100771.72;5061185;28;20158;-77
2023/09/21 03:30:41;;;;;;;6.65;4.13;;;;;;;15.65;100.00;100780.44;5062415;28;20055;-77
2023/09/21 03:33:07;;;;;;;2.00;1.90;;;;;;;14.89;100.00;100661.69;5062950;28;20588;-77
2023/09/21 03:35:33;;;;;;;3.30;2.30;;;;;;;15.48;100.00;100719.88;5062358;28;20040;-78
2023/09/21 03:37:59;;;;;;;4.10;1.73;;;;;;;15.43;100.00;100734.03;5062363;28;20035;-77
2023/09/21 03:40:25;;;;;;;1.45;1.17;;;;;;;15.14;100.00;100707.13;5061649;28;20056;-80
2023/09/21 03:42:54;;;;;;;0.77;0.77;;;;;;;15.33;100.00;100718.31;5063380;28;20055;-77
2023/09/21 03:45:24;;;;;;;2.47;2.28;;;;;;;15.62;100.00;100772.56;5058553;28;20059;-79
2023/09/21 03:47:51;;;;;;;5.85;3.90;;;;;;;15.28;100.00;100751.00;5047834;28;20040;-79
2023/09/21 03:50:17;;;;;;;2.97;2.40;;;;;;;15.55;100.00;100781.50;5064134;28;20025;-80
2023/09/21 03:52:43;;;;;;;7.00;3.95;;;;;;;15.32;100.00;100777.41;5068518;28;20086;-79
2023/09/21 03:55:15;;;;;;;5.60;2.38;;;;;;;14.80;100.00;100709.38;5047432;28;20043;-79
2023/09/21 03:57:41;;;;;;;3.50;2.88;;;;;;;15.30;100.00;100788.88;5054432;28;20040;-79
2023/09/21 04:00:19;;;;;;;4.20;2.58;;;;;;;15.31;100.00;100782.69;5069279;28;20123;-79
2023/09/21 04:02:45;;;;;;;1.92;1.35;;;;;;;14.42;100.00;100655.22;5061245;28;20457;-78
2023/09/21 04:05:13;;;;;;;5.28;4.07;;;;;;;14.73;100.00;100682.16;5070299;28;20043;-77
2023/09/21 04:07:39;;;;;;;2.22;1.70;;;;;;;14.67;100.00;100691.91;5069064;28;20152;-77
2023/09/21 04:10:06;;;;;;;15.63;5.25;;;;;;;15.13;100.00;100774.13;5069454;28;20075;-78
2023/09/21 04:12:32;;;;;;;4.57;4.18;;;;;;;14.65;100.00;100704.25;5061511;28;20045;-79
2023/09/21 04:14:57;;;;;;;4.03;3.72;;;;;;;15.08;100.00;100767.16;5068815;28;20533;-77
2023/09/21 04:17:25;;;;;;;5.05;3.53;;;;;;;14.64;100.00;100673.47;5066537;28;20499;-78
2023/09/21 04:19:52;;;;;;;8.32;4.30;;;;;;;15.19;100.00;100776.69;5050358;28;20037;-77
2023/09/21 04:22:18;;;;;;;3.40;2.97;;;;;;;14.61;100.00;100670.84;5067053;28;20425;-79
2023/09/21 04:24:43;;;;;;;7.43;4.30;;;;;;;14.53;100.00;100678.84;5064204;28;20048;-79
2023/09/21 04:27:08;;;;;;;2.78;2.58;;;;;;;15.14;100.00;100796.13;5065454;28;20048;-79
2023/09/21 04:29:34;;;;;;;3.70;2.17;;;;;;;14.94;100.00;100762.91;5063760;28;20025;-77
2023/09/21 04:31:59;;;;;;;4.43;4.03;;;;;;;15.23;100.00;100795.16;5064833;28;20031;-77
2023/09/21 04:34:25;;;;;;;6.55;4.22;;;;;;;13.73;100.00;100514.38;5058271;28;20151;-79
2023/09/21 04:36:50;;;;;;;4.78;4.43;;;;;;;14.44;100.00;100637.56;5059070;28;20060;-79
2023/09/21 04:39:17;;;;;;;3.95;3.55;;;;;;;14.66;100.00;100676.97;5060544;28;20065;-78
2023/09/21 04:41:42;;;;;;;24.27;6.38;;;;;;;15.01;100.00;100731.09;5061545;28;20337;-78
2023/09/21 04:44:09;;;;;;;6.13;3.80;;;;;;;14.83;100.00;100706.69;5059700;28;20029;-78
2023/09/21 04:46:38;;;;;;;3.15;2.53;;;;;;;15.35;100.00;100795.84;5038488;28;20044;-78
2023/09/21 04:49:03;;;;;;;3.22;2.92;;;;;;;14.94;100.00;100703.91;5040789;28;20064;-77
2023/09/21 04:51:29;;;;;;;4.00;3.60;;;;;;;15.25;100.00;100764.28;5073077;28;20049;-79
2023/09/21 04:53:54;;;;;;;2.92;2.55;;;;;;;15.43;100.00;100779.91;5063403;28;20438;-77
2023/09/21 04:56:20;;;;;;;4.85;3.35;;;;;;;15.06;100.00;100674.66;5067896;28;20051;-78
2023/09/21 04:58:46;;;;;;;2.75;2.40;;;;;;;15.41;100.00;100758.75;5065129;28;20037;-78
2023/09/21 05:01:13;;;;;;;4.97;3.20;;;;;;;15.55;100.00;100778.84;5065768;28;20684;-77
2023/09/21 05:03:38;;;;;;;4.55;4.07;;;;;;;15.13;100.00;100684.25;5067886;28;20032;-79
2023/09/21 05:06:07;;;;;;;7.60;4.43;;;;;;;15.61;100.00;100758.44;5067250;28;20098;-76
2023/09/21 05:08:36;;;;;;;4.80;3.92;;;;;;;16.09;100.00;100780.69;5064512;28;20480;-79
2023/09/21 05:11:05;;;;;;;6.20;1.58;;;;;;;16.73;100.00;100676.16;5058771;28;20044;-71
2023/09/21 05:13:31;;;;;;;3.45;3.13;;;;;;;17.16;100.00;100647.84;5045328;28;20419;-71
2023/09/21 05:15:57;;;;;;;7.07;4.50;;;;;;;16.93;100.00;100625.41;5068331;28;20036;-69
2023/09/21 05:18:22;;;;;;;3.33;2.92;;;;;;;17.13;100.00;100627.56;5061234;28;20071;-70
2023/09/21 05:20:49;;;;;;;5.07;3.45;;;;;;;17.47;100.00;100720.50;5070296;28;20049;-69
2023/09/21 05:23:15;;;;;;;1.35;1.25;;;;;;;18.59;100.00;100625.50;5053406;28;20036;-70
2023/09/21 05:25:40;;;;;;;3.30;2.47;;;;;;;17.08;100.00;100627.69;5060032;28;20421;-71
2023/09/21 05:28:06;;;;;;;3.25;2.85;;;;;;;19.09;100.00;100714.44;5063732;28;20079;-70
2023/09/21 05:30:31;;;;;;;6.05;4.47;;;;;;;16.93;100.00;100603.31;5062826;28;20055;-69
2023/09/21 05:32:57;;;;;;;2.63;2.08;;;;;;;17.67;100.00;100712.03;5069853;28;20095;-70
2023/09/21 05:35:23;;;;;;;2.17;1.98;;;;;;;17.79;100.00;100603.81;5060267;28;20048;-69
2023/09/21 05:37:49;;;;;;;1.02;0.98;;;;;;;17.40;100.00;100699.47;5058673;28;20062;-69
2023/09/21 05:40:14;;;;;;;1.65;1.55;;;;;;;18.96;100.00;100710.41;5046400;28;20048;-71
2023/09/21 05:42:41;;;;;;;30.48;4.65;;;;;;;19.74;100.00;100697.31;5067793;28;20071;-71
2023/09/21 05:45:08;;;;;;;1.38;1.27;;;;;;;18.70;100.00;100589.72;5045375;28;20037;-70
2023/09/21 05:47:33;;;;;;;1.13;1.00;;;;;;;19.37;100.00;100669.22;5058489;28;20043;-71
2023/09/21 05:49:59;;;;;;;3.72;3.45;;;;;;;20.06;100.00;100668.69;5064477;28;20068;-68
2023/09/21 05:52:25;;;;;;;3.55;3.30;;;;;;;19.39;100.00;100598.19;5064586;28;20040;-71
2023/09/21 05:54:51;;;;;;;3.00;2.78;;;;;;;21.36;100.00;100673.59;5056358;28;20052;-68
2023/09/21 05:57:17;;;;;;;3.05;2.58;;;;;;;19.71;100.00;100677.91;5057475;28;20163;-70
2023/09/21 05:59:43;;;;;;;9.75;2.90;;;;;;;19.65;100.00;100696.72;5061703;28;20054;-75
2023/09/21 06:02:13;;;;;;;5.57;2.63;;;;;;;19.29;100.00;100681.00;5054062;28;20054;-74
2023/09/21 06:04:41;;;;;;;2.00;1.65;;;;;;;19.53;100.00;100687.34;5052625;28;20044;-73
2023/09/21 06:07:07;;;;;;;3.60;3.30;;;;;;;19.71;100.00;100681.44;5061932;28;20037;-75
2023/09/21 06:09:34;;;;;;;2.63;2.42;;;;;;;19.31;100.00;100706.66;5054993;28;20041;-75
2023/09/21 06:12:00;;;;;;;3.20;2.70;;;;;;;19.21;100.00;100608.56;5048004;28;20083;-76
2023/09/21 06:14:25;;;;;;;2.28;2.10;;;;;;;18.54;100.00;100610.59;5068737;28;20037;-75
2023/09/21 06:16:51;;;;;;;7.05;3.10;;;;;;;19.30;100.00;100712.03;5065175;28;20435;-74
2023/09/21 06:19:18;;;;;;;0.85;0.65;;;;;;;18.88;100.00;100646.81;5066534;28;20040;-75
2023/09/21 06:21:47;;;;;;;7.93;2.90;;;;;;;19.44;100.00;100709.81;5065316;28;20063;-74
2023/09/21 06:24:12;;;;;;;2.65;2.45;;;;;;;19.33;100.00;100682.66;5063081;28;20484;-73
2023/09/21 06:26:38;;;;;;;3.95;3.65;;;;;;;18.78;100.00;100541.69;5063166;28;20043;-75
2023/09/21 06:29:04;;;;;;;5.32;3.40;;;;;;;19.16;100.00;100611.38;5045047;28;20115;-75
2023/09/21 06:31:30;;;;;;;6.47;3.38;;;;;;;19.57;100.00;100702.28;5064691;28;20646;-75
2023/09/21 06:34:01;;;;;;;2.45;1.77;;;;;;;19.59;100.00;100688.00;5063264;28;20068;-76
2023/09/21 06:36:30;;;;;;;1.13;0.90;;;;;;;19.39;100.00;100642.56;5062121;28;20037;-75
2023/09/21 06:38:59;;;;;;;4.60;4.18;;;;;;;18.89;100.00;100608.66;5064343;28;20139;-75
2023/09/21 06:41:25;;;;;;;4.63;2.03;;;;;;;19.14;100.00;100613.22;5063872;28;20032;-75
2023/09/21 06:43:51;;;;;;;3.45;3.15;;;;;;;19.77;100.00;100701.69;5063666;28;20086;-73
2023/09/21 06:46:17;;;;;;;2.95;2.72;;;;;;;19.15;100.00;100614.94;5061217;28;20494;-75
2023/09/21 06:48:42;;;;;;;5.22;3.85;;;;;;;19.51;100.00;100700.72;5047438;28;20069;-74
2023/09/21 06:51:08;;;;;;;1.95;1.70;;;;;;;19.36;100.00;100616.03;5068163;28;20044;-75
2023/09/21 06:53:35;;;;;;;6.95;5.28;;;;;;;19.37;100.00;100591.19;5059482;28;20095;-78
2023/09/21 06:56:01;;;;;;;4.63;3.83;;;;;;;20.06;100.00;100699.81;5065909;28;20539;-76
2023/09/21 06:58:28;;;;;;;1.48;1.38;;;;;;;20.35;100.00;100705.00;5051543;28;20045;-77
2023/09/21 07:00:54;;;;;;;1.45;1.35;;;;;;;20.26;100.00;100707.97;5059433;28;20037;-75
2023/09/21 07:03:19;;;;;;;6.78;3.75;;;;;;;20.27;100.00;100671.53;5069781;28;20063;-77
2023/09/21 07:05:48;;;;;;;2.38;2.17;;;;;;;20.57;100.00;100718.44;5060179;28;20370;-78
2023/09/21 07:08:15;;;;;;;2.45;1.60;;;;;;;19.75;100.00;100627.16;5055314;28;20037;-78
2023/09/21 07:10:41;;;;;;;1.77;1.67;;;;;;;20.43;100.00;100702.03;5056064;28;20032;-76
2023/09/21 07:13:07;;;;;;;5.20;4.90;;;;;;;20.19;100.00;100653.16;5056718;28;20098;-76
2023/09/21 07:15:33;;;;;;;4.60;4.20;;;;;;;20.17;100.00;100615.91;5056914;28;20052;-74
2023/09/21 07:17:59;;;;;;;2.40;2.20;;;;;;;20.65;100.00;100627.50;5056348;28;20044;-73
2023/09/21 07:20:26;;;;;;;3.13;2.88;;;;;;;20.70;100.00;100697.53;5058517;28;20044;-76
2023/09/21 07:22:52;;;;;;;1.20;1.00;;;;;;;20.65;100.00;100676.38;5058257;28;20052;-77
2023/09/21 07:25:18;;;;;;;2.25;1.85;;;;;;;20.91;100.00;100708.28;5047119;28;20072;-76
2023/09/21 07:27:45;;;;;;;1.48;1.17;;;;;;;20.87;100.00;100667.53;5052781;28;20045;-76
2023/09/21 07:30:13;;;;;;;1.42;1.25;;;;;;;21.19;100.00;100692.09;5060256;28;20412;-77
2023/09/21 07:32:39;;;;;;;3.08;1.90;;;;;;;20.94;100.00;100629.03;5056200;28;20063;-76
2023/09/21 07:35:06;;;;;;;4.15;2.75;;;;;;;21.02;100.00;100690.94;5047586;28;20039;-76
2023/09/21 07:37:32;;;;;;;1.40;1.30;;;;;;;21.12;100.00;100635.44;5060457;28;20040;-78
2023/09/21 07:40:02;;;;;;;2.58;2.38;;;;;;;21.28;100.00;100670.38;5058583;28;20072;-77
2023/09/21 07:42:28;;;;;;;1.77;1.17;;;;;;;21.87;100.00;100703.59;5036582;28;20032;-75
2023/09/21 07:44:53;;;;;;;1.80;1.35;;;;;;;21.02;100.00;100626.03;5064767;28;20036;-75
2023/09/21 07:47:21;;;;;;;2.00;1.52;;;;;;;21.53;100.00;100709.47;5061881;28;20036;-76
2023/09/21 07:49:47;;;;;;;1.23;1.13;;;;;;;21.65;100.00;100704.47;5060127;28;20072;-77
2023/09/21 07:52:12;;;;;;;3.75;1.63;;;;;;;21.54;100.00;100652.44;5053621;28;20501;-76
2023/09/21 07:54:41;;;;;;;0.70;0.70;;;;;;;21.61;100.00;100702.00;5049652;28;20381;-77
2023/09/21 07:57:08;;;;;;;2.22;2.00;;;;;;;21.49;100.00;100684.69;5057012;28;20155;-75
2023/09/21 07:59:33;;;;;;;1.55;0.73;;;;;;;21.65;100.00;100666.22;5046919;28;20483;-75
2023/09/21 08:02:00;;;;;;;1.23;1.10;;;;;;;21.21;100.00;100607.50;5058166;28;20021;-77
2023/09/21 08:04:28;;;;;;;3.20;2.85;;;;;;;22.06;100.00;100703.69;5054857;28;20583;-76
2023/09/21 08:06:55;;;;;;;4.25;2.67;;;;;;;21.88;100.00;100703.53;5038044;28;20116;-76
2023/09/21 08:09:21;;;;;;;1.20;1.08;;;;;;;21.82;100.00;100610.28;5064906;28;20442;-76
2023/09/21 08:11:47;;;;;;;2.03;1.92;;;;;;;21.37;100.00;100592.56;5056717;28;20074;-75
2023/09/21 08:14:12;;;;;;;1.13;1.02;;;;;;;22.04;100.00;100673.47;5057557;28;20453;-77
2023/09/21 08:16:38;;;;;;;0.45;0.45;;;;;;;21.97;100.00;100613.22;5059473;28;20051;-77
2023/09/21 08:19:04;;;;;;;1.80;1.70;;;;;;;22.26;100.00;100611.94;5031897;28;20049;-76
2023/09/21 08:21:31;;;;;;;1.80;1.63;;;;;;;22.18;100.00;100647.00;5054171;28;20182;-76
2023/09/21 08:23:56;;;;;;;1.45;1.27;;;;;;;22.58;100.00;100665.78;5056600;28;20036;-76
2023/09/21 08:26:22;;;;;;;1.65;1.45;;;;;;;22.31;100.00;100599.22;5060206;28;20517;-75
2023/09/21 08:28:47;;;;;;;2.83;2.53;;;;;;;22.72;100.00;100656.16;5055224;28;20052;-77
2023/09/21 08:31:13;;;;;;;1.33;1.10;;;;;;;22.74;100.00;100686.38;5053775;28;20045;-77
2023/09/21 08:33:39;;;;;;;2.67;2.35;;;;;;;23.02;100.00;100673.56;5051979;28;20120;-76
2023/09/21 08:36:05;;;;;;;1.75;1.65;;;;;;;22.74;100.00;100670.34;5052076;28;20082;-77
2023/09/21 08:38:31;;;;;;;2.55;2.22;;;;;;;22.84;100.00;100657.38;5053307;28;20099;-75
2023/09/21 08:40:59;;;;;;;4.78;2.72;;;;;;;22.76;100.00;100676.50;5054660;28;20564;-75
2023/09/21 08:43:25;;;;;;;2.03;1.85;;;;;;;22.96;100.00;100672.00;5044613;28;20845;-75
2023/09/21 08:45:52;;;;;;;1.90;1.58;;;;;;;23.02;100.00;100638.78;5060608;28;20051;-75
2023/09/21 08:48:22;;;;;;;5.07;4.20;;;;;;;22.84;100.00;100574.44;5062617;28;20037;-76
2023/09/21 08:50:51;;;;;;;3.63;3.30;;;;;;;22.95;100.00;100582.81;5061279;28;21401;-74
2023/09/21 08:53:22;;;;;;;2.28;2.08;;;;;;;23.46;100.00;100657.13;5062559;28;20040;-77
2023/09/21 08:55:48;;;;;;;8.75;4.60;;;;;;;23.54;100.00;100666.53;5055299;28;20488;-76
2023/09/21 08:58:25;;;;;;;5.10;4.60;;;;;;;22.95;100.00;100568.56;5045179;28;20075;-77
2023/09/21 09:00:56;;;;;;;3.97;2.75;;;;;;;22.87;100.00;100568.06;5062793;28;20121;-75
2023/09/21 09:03:25;;;;;;;3.90;2.92;;;;;;;22.96;100.00;100592.56;5066195;28;20048;-75
2023/09/21 09:05:52;;;;;;;3.85;3.47;;;;;;;23.24;100.00;100633.22;5066944;28;20131;-74
2023/09/21 09:08:18;;;;;;;4.68;4.28;;;;;;;23.36;100.00;100646.88;5059817;28;20029;-75
2023/09/21 09:10:43;;;;;;;8.50;4.70;;;;;;;23.46;100.00;100624.97;5060978;28;20793;-76
2023/09/21 09:13:09;;;;;;;1.35;1.25;;;;;;;23.56;100.00;100634.31;5058743;28;20135;-81
2023/09/21 09:15:38;;;;;;;1.30;1.17;;;;;;;23.65;100.00;100633.84;5064958;28;20136;-76
2023/09/21 09:18:05;;;;;;;0.50;0.50;;;;;;;23.45;100.00;100577.72;5050416;28;20514;-77
2023/09/21 09:20:32;;;;;;;2.88;1.77;;;;;;;23.85;100.00;100637.34;5051141;28;20618;-77
2023/09/21 09:23:00;;;;;;;2.10;1.90;;;;;;;23.47;100.00;100570.50;5066472;28;20032;-79
2023/09/21 09:25:26;;;;;;;0.35;0.35;;;;;;;24.04;100.00;100629.19;5063461;28;20080;-77
2023/09/21 09:27:52;;;;;;;2.00;1.60;;;;;;;24.41;100.00;100636.16;5060359;28;20068;-75
2023/09/21 09:30:20;;;;;;;4.38;2.97;;;;;;;24.58;100.00;100637.94;5060883;28;20550;-76
2023/09/21 09:32:47;;;;;;;2.45;0.80;;;;;;;24.65;100.00;100615.19;5066993;28;20028;-76
2023/09/21 09:35:13;;;;;;;1.30;1.05;;;;;;;24.04;100.00;100541.59;5062039;28;20024;-74
2023/09/21 09:37:48;;;;;;;0.75;0.75;;;;;;;24.74;100.00;100630.78;5058377;28;20129;-77
2023/09/21 09:40:18;;;;;;;2.75;2.47;;;;;;;24.70;100.00;100602.41;5054712;28;20702;-77
2023/09/21 09:42:44;;;;;;;2.88;1.95;;;;;;;24.62;100.00;100604.63;5051851;28;20401;-77
2023/09/21 09:45:25;;;;;;;2.08;1.65;;;;;;;24.30;100.00;100548.22;5052428;28;20061;-77
2023/09/21 09:47:56;;;;;;;3.72;3.35;;;;;;;24.73;100.00;100598.69;5065649;28;20047;-78
2023/09/21 09:50:24;;;;;;;1.10;1.00;;;;;;;24.73;100.00;100577.19;5055567;28;20036;-75
2023/09/21 09:53:01;;;;;;;1.88;1.77;;;;;;;25.32;100.00;100620.41;5058392;28;20088;-77
2023/09/21 09:55:31;;;;;;;2.60;2.40;;;;;;;25.23;100.00;100628.03;5057346;28;20078;-77
2023/09/21 09:57:59;;;;;;;0.77;0.73;;;;;;;24.77;100.00;100560.84;5054232;28;20495;-77
2023/09/21 10:00:27;;;;;;;1.23;1.13;;;;;;;24.87;100.00;100561.19;5063087;28;20492;-77
2023/09/21 10:02:57;;;;;;;1.27;1.17;;;;;;;25.23;100.00;100616.44;5051651;28;20044;-77
2023/09/21 10:05:27;;;;;;;2.70;2.50;;;;;;;24.92;100.00;100548.34;5060346;28;20033;-75
2023/09/21 10:07:56;;;;;;;2.88;2.13;;;;;;;25.06;100.00;100548.41;5040275;28;20100;-77
2023/09/21 10:10:25;;;;;;;1.58;1.48;;;;;;;25.57;100.00;100609.09;5057747;28;20033;-74
2023/09/21 10:12:52;;;;;;;1.33;1.20;;;;;;;25.03;100.00;100617.56;5057146;28;20078;-77
2023/09/21 10:15:18;;;;;;;3.00;1.25;;;;;;;25.17;100.00;100581.81;5053914;28;20202;-75
2023/09/21 10:17:45;;;;;;;1.25;1.15;;;;;;;24.78;100.00;100553.66;5061655;28;20770;-76
2023/09/21 10:20:15;;;;;;;1.55;1.45;;;;;;;25.01;100.00;100512.91;5055133;28;20029;-76
2023/09/21 10:22:44;;;;;;;0.80;0.60;;;;;;;25.62;100.00;100570.22;5060340;28;20037;-80
2023/09/21 10:25:15;;;;;;;1.60;1.38;;;;;;;25.66;99.13;100536.84;5054399;28;20150;-77
2023/09/21 10:27:46;;;;;;;1.42;1.38;;;;;;;26.04;96.00;100549.75;5051416;28;20043;-82
2023/09/21 10:30:16;;;;;;;2.20;1.38;;;;;;;26.11;95.34;100596.81;5055260;28;20103;-81
2023/09/21 10:32:43;;;;;;;1.48;1.38;;;;;;;26.52;91.68;100520.66;5062404;28;20028;-79
2023/09/21 10:35:14;;;;;;;2.00;1.80;;;;;;;26.25;87.71;100544.84;5051198;28;20544;-77
2023/09/21 10:37:40;;;;;;;1.77;1.67;;;;;;;26.42;85.99;100557.22;5057314;28;20040;-81
2023/09/21 10:40:08;;;;;;;1.10;1.05;;;;;;;26.76;85.00;100508.44;5050660;28;20052;-75
2023/09/21 10:42:37;;;;;;;0.77;0.77;;;;;;;27.91;75.19;100581.50;5047661;28;20040;-78
2023/09/21 10:45:07;;;;;;;1.23;1.13;;;;;;;28.08;73.56;100559.63;5045739;28;20049;-82
2023/09/21 10:47:38;;;;;;;3.08;2.13;;;;;;;27.66;73.75;100579.66;5056484;28;20060;-82
2023/09/21 10:50:06;;;;;;;0.40;0.40;;;;;;;27.87;73.14;100567.41;5060432;28;20120;-84
2023/09/21 10:52:32;;;;;;;0.65;0.65;;;;;;;27.97;68.91;100532.53;5058840;28;20063;-78
2023/09/21 10:54:59;;;;;;;1.38;1.05;;;;;;;27.66;71.40;100555.38;5062509;28;20044;-81
2023/09/21 10:57:30;;;;;;;2.80;1.42;;;;;;;27.50;68.43;100525.91;5055736;28;20072;-80
2023/09/21 10:59:59;;;;;;;1.55;1.35;;;;;;;27.84;67.84;100558.63;5057738;28;20041;-82
2023/09/21 11:02:26;;;;;;;0.95;0.95;;;;;;;27.12;67.63;100530.22;5051632;28;20039;-83
2023/09/21 11:04:52;;;;;;;3.15;2.45;;;;;;;26.82;67.42;100464.97;5064927;28;20044;-83
2023/09/21 11:07:18;;;;;;;0.85;0.65;;;;;;;27.33;67.32;100521.69;5057072;28;20079;-84
2023/09/21 11:09:44;;;;;;;0.40;0.40;;;;;;;26.84;66.85;100517.75;5055944;28;20408;-84
2023/09/21 11:12:13;;;;;;;4.18;1.15;;;;;;;27.09;66.85;100505.31;5066735;28;20037;-84
2023/09/21 11:14:43;;;;;;;3.13;2.45;;;;;;;26.81;67.46;100457.81;5035359;28;20365;-83
2023/09/21 11:17:12;;;;;;;1.75;1.65;;;;;;;27.22;67.43;100438.03;5053231;28;20028;-82
2023/09/21 11:19:41;;;;;;;1.55;1.00;;;;;;;27.44;66.02;100440.97;5063195;28;20046;-83